Time;durP1;ratioP1;P1;durP2;ratioP2;P2;SDS_P1;SDS_P2;PMS_P1;PMS_P2;Temp;Humidity;BMP_temperature;BMP_pressure;BME280_temperature;BME280_humidity;BME280_pressure;Samples;Min_cycle;Max_cycle;Signal;HPM_P1;HPM_P2
2022/01/21 00:00:07;;;;;;;5.60;1.40;;;1.20;92.60;;;;;;5013298;28;20463;-74
2022/01/21 00:02:33;;;;;;;4.88;1.30;;;1.10;93.00;;;;;;4999324;28;20038;-74
2022/01/21 00:05:07;;;;;;;3.97;1.27;;;1.20;93.40;;;;;;5000492;28;20037;-73
2022/01/21 00:07:33;;;;;;;6.50;1.48;;;1.30;93.30;;;;;;5001381;28;20037;-73
2022/01/21 00:09:58;;;;;;;5.07;1.20;;;1.30;93.80;;;;;;4998325;28;20033;-73
2022/01/21 00:12:26;;;;;;;6.53;1.52;;;1.30;94.30;;;;;;5000910;28;20370;-74
2022/01/21 00:14:51;;;;;;;3.55;1.20;;;1.20;95.10;;;;;;5001404;28;20600;-73
2022/01/21 00:17:19;;;;;;;4.28;1.77;;;1.00;96.10;;;;;;4999989;28;20030;-73
2022/01/21 00:19:47;;;;;;;4.70;1.50;;;1.00;96.60;;;;;;5003232;28;20040;-72
2022/01/21 00:30:26;;;;;;;3.42;1.35;;;1.00;98.10;;;;;;4996411;28;20045;-72
2022/01/21 00:32:52;;;;;;;5.78;1.77;;;1.00;98.50;;;;;;5003724;28;20481;-72
2022/01/21 00:35:20;;;;;;;4.30;1.48;;;1.00;98.70;;;;;;5002011;28;20030;-73
2022/01/21 00:37:46;;;;;;;5.32;1.60;;;1.00;98.70;;;;;;5000141;28;20061;-74
2022/01/21 00:40:18;;;;;;;6.57;1.80;;;1.00;99.20;;;;;;5000653;28;20034;-73
2022/01/21 00:45:15;;;;;;;6.13;1.75;;;0.90;99.80;;;;;;4999204;28;20310;-74
2022/01/21 00:47:42;;;;;;;4.95;1.67;;;0.90;99.90;;;;;;5002066;28;20112;-74
2022/01/21 00:50:08;;;;;;;5.20;1.70;;;0.80;99.90;;;;;;5001893;28;20041;-74
2022/01/21 00:52:35;;;;;;;3.35;1.70;;;0.80;99.90;;;;;;4998746;28;20416;-74
2022/01/21 00:55:01;;;;;;;4.72;1.60;;;0.80;99.90;;;;;;5002692;28;20033;-73
2022/01/21 00:57:26;;;;;;;5.90;1.63;;;0.80;99.90;;;;;;4999919;28;20026;-74
2022/01/21 00:59:52;;;;;;;2.30;1.27;;;0.70;99.90;;;;;;4997342;28;20416;-74
2022/01/21 01:02:18;;;;;;;4.18;1.90;;;0.70;99.90;;;;;;5003822;28;20060;-74
2022/01/21 01:04:43;;;;;;;2.00;1.13;;;0.70;99.90;;;;;;5004122;28;20060;-73
2022/01/21 01:07:12;;;;;;;3.08;1.33;;;0.60;99.90;;;;;;5006925;28;20034;-73
2022/01/21 01:09:38;;;;;;;3.47;1.40;;;0.70;99.80;;;;;;5003547;28;20045;-73
2022/01/21 01:12:26;;;;;;;5.18;1.63;;;0.70;99.30;;;;;;5004203;28;20026;-73
2022/01/21 01:20:21;;;;;;;3.05;1.52;;;0.70;99.10;;;;;;5000150;28;20662;-74
2022/01/21 01:22:58;;;;;;;4.38;1.20;;;0.80;99.10;;;;;;5000721;28;20034;-74
2022/01/21 01:28:08;;;;;;;3.42;1.33;;;0.90;98.80;;;;;;5004436;28;20060;-73
2022/01/21 01:30:36;;;;;;;3.53;1.05;;;0.90;97.80;;;;;;4999932;28;20105;-74
2022/01/21 01:33:03;;;;;;;2.97;1.13;;;0.90;97.60;;;;;;5000396;28;20038;-73
2022/01/21 01:35:33;;;;;;;2.05;1.00;;;0.90;97.10;;;;;;5003325;28;20084;-74
2022/01/21 01:40:54;;;;;;;4.15;1.30;;;0.90;96.50;;;;;;4999639;28;20045;-74
2022/01/21 01:51:17;;;;;;;3.40;1.23;;;0.80;96.10;;;;;;4999989;28;20104;-73
2022/01/21 01:54:05;;;;;;;5.90;1.38;;;0.80;96.40;;;;;;5004805;28;20621;-72
2022/01/21 01:56:35;;;;;;;3.70;1.15;;;0.70;96.20;;;;;;5003578;28;20089;-73
2022/01/21 01:59:01;;;;;;;7.07;1.40;;;0.70;96.20;;;;;;5001156;28;20056;-74
2022/01/21 02:01:27;;;;;;;3.40;1.17;;;0.70;96.20;;;;;;5001680;28;20757;-74
2022/01/21 02:03:52;;;;;;;2.90;1.13;;;0.70;96.20;;;;;;4999883;28;21600;-73
2022/01/21 02:06:18;;;;;;;3.95;1.52;;;0.70;96.30;;;;;;5001698;28;20030;-73
2022/01/21 02:08:44;;;;;;;5.07;1.60;;;0.70;96.40;;;;;;5003722;28;20428;-73
2022/01/21 02:11:10;;;;;;;3.28;1.15;;;0.70;96.60;;;;;;5000156;28;20034;-73
2022/01/21 02:13:42;;;;;;;2.88;1.30;;;0.70;96.20;;;;;;5002596;28;20675;-73
2022/01/21 02:21:39;;;;;;;3.10;1.02;;;0.70;96.10;;;;;;5000986;28;20508;-74
2022/01/21 02:24:07;;;;;;;5.20;1.10;;;0.70;95.90;;;;;;5000646;28;20038;-74
2022/01/21 02:26:34;;;;;;;3.65;1.50;;;0.70;96.20;;;;;;4999036;28;20461;-73
2022/01/21 02:29:02;;;;;;;4.68;1.00;;;0.60;96.10;;;;;;5001076;28;20026;-74
2022/01/21 02:31:28;;;;;;;4.22;1.00;;;0.70;96.10;;;;;;5000958;28;20413;-73
2022/01/21 02:33:54;;;;;;;5.75;1.13;;;0.60;96.10;;;;;;5000251;28;20046;-74
2022/01/21 02:36:20;;;;;;;4.65;1.25;;;0.60;96.00;;;;;;5000884;28;20096;-74
2022/01/21 02:38:46;;;;;;;4.38;0.90;;;0.60;96.20;;;;;;5001884;28;20467;-73
2022/01/21 02:41:12;;;;;;;4.82;1.25;;;0.50;96.10;;;;;;5001308;28;20080;-74
2022/01/21 02:43:37;;;;;;;4.40;1.33;;;0.60;96.40;;;;;;5004026;28;20033;-74
2022/01/21 02:46:07;;;;;;;4.30;1.20;;;0.50;96.60;;;;;;5000152;28;20034;-73
2022/01/21 02:48:39;;;;;;;2.50;1.10;;;0.60;96.60;;;;;;4997750;28;20022;-73
2022/01/21 02:51:08;;;;;;;5.10;1.55;;;0.50;96.50;;;;;;4998653;28;20125;-74
2022/01/21 02:56:11;;;;;;;7.35;1.30;;;0.50;96.40;;;;;;5002640;28;20037;-74
2022/01/21 02:58:38;;;;;;;3.45;1.25;;;0.50;96.50;;;;;;4999490;28;20030;-73
2022/01/21 03:01:05;;;;;;;3.80;1.08;;;0.50;96.50;;;;;;4997793;28;20029;-74
2022/01/21 03:03:31;;;;;;;3.45;1.00;;;0.50;96.60;;;;;;4998895;28;20034;-74
2022/01/21 03:05:57;;;;;;;5.90;1.25;;;0.50;97.00;;;;;;5000311;28;20034;-74
2022/01/21 03:08:23;;;;;;;5.60;1.20;;;0.50;97.40;;;;;;4998702;28;20031;-74
2022/01/21 03:10:49;;;;;;;2.83;0.88;;;0.40;97.70;;;;;;5002487;28;20115;-73
2022/01/21 03:13:15;;;;;;;2.20;1.10;;;0.30;98.30;;;;;;5001138;28;20025;-73
2022/01/21 03:15:41;;;;;;;4.70;1.27;;;0.30;98.80;;;;;;5000473;28;20797;-72
2022/01/21 03:18:06;;;;;;;3.15;0.95;;;0.30;98.90;;;;;;4999696;28;20030;-72
2022/01/21 03:20:32;;;;;;;3.63;1.42;;;0.40;99.20;;;;;;4999149;28;20033;-74
2022/01/21 03:23:00;;;;;;;3.00;1.27;;;0.40;99.90;;;;;;4996662;28;20093;-74
2022/01/21 03:25:26;;;;;;;1.35;1.10;;;0.40;99.90;;;;;;5000038;28;20038;-73
2022/01/21 03:27:52;;;;;;;5.50;1.30;;;0.30;99.90;;;;;;5001316;28;20051;-73
2022/01/21 03:30:17;;;;;;;1.98;1.00;;;0.20;99.90;;;;;;5001248;28;20033;-74
2022/01/21 03:32:43;;;;;;;1.75;1.10;;;0.30;99.90;;;;;;4996412;28;20386;-74
2022/01/21 03:35:09;;;;;;;2.00;0.77;;;0.20;99.90;;;;;;5002241;28;20026;-73
2022/01/21 03:37:35;;;;;;;3.90;1.00;;;0.20;99.90;;;;;;5002703;28;20405;-73
2022/01/21 03:40:01;;;;;;;4.10;0.90;;;0.30;99.90;;;;;;4999307;28;20042;-73
2022/01/21 03:42:28;;;;;;;11.98;5.95;;;0.30;99.90;;;;;;4996544;28;20033;-73
2022/01/21 03:44:54;;;;;;;1.35;0.93;;;0.40;99.90;;;;;;5001689;28;20026;-73
2022/01/21 03:47:20;;;;;;;6.00;1.38;;;0.40;99.90;;;;;;5001113;28;20034;-73
2022/01/21 03:49:53;;;;;;;6.65;2.30;;;0.40;99.90;;;;;;4997568;28;21218;-73
2022/01/21 03:52:19;;;;;;;8.75;3.90;;;0.40;99.90;;;;;;4997680;28;20050;-73
2022/01/21 03:54:45;;;;;;;2.03;1.10;;;0.40;99.70;;;;;;4999511;28;20088;-74
2022/01/21 03:57:10;;;;;;;1.40;0.70;;;0.40;98.70;;;;;;4997615;28;20041;-73
2022/01/21 03:59:36;;;;;;;1.15;0.55;;;0.30;98.40;;;;;;4998275;28;20045;-73
2022/01/21 04:02:05;;;;;;;2.42;0.93;;;0.30;97.20;;;;;;4998995;28;20029;-73
2022/01/21 04:04:31;;;;;;;1.48;0.50;;;0.30;97.20;;;;;;5000126;28;20034;-73
2022/01/21 04:06:56;;;;;;;1.38;0.43;;;0.20;97.30;;;;;;5000992;28;20034;-73
2022/01/21 04:09:22;;;;;;;0.70;0.60;;;0.10;97.70;;;;;;4999570;28;20029;-72
2022/01/21 04:11:48;;;;;;;0.90;0.50;;;0.10;97.90;;;;;;4999202;28;20038;-73
2022/01/21 04:14:15;;;;;;;1.33;0.88;;;0.00;97.90;;;;;;5002473;28;20030;-73
2022/01/21 04:16:40;;;;;;;1.90;0.52;;;0.10;97.80;;;;;;4997151;28;20038;-73
2022/01/21 04:19:06;;;;;;;2.22;0.70;;;0.10;97.80;;;;;;5001652;28;20057;-73
2022/01/21 04:21:32;;;;;;;3.00;0.73;;;0.00;98.10;;;;;;4998365;28;20429;-73
2022/01/21 04:23:59;;;;;;;1.88;0.65;;;0.00;98.20;;;;;;5000534;28;20041;-73
2022/01/21 04:26:25;;;;;;;0.57;0.50;;;0.00;98.20;;;;;;4999154;28;20033;-73
2022/01/21 04:28:50;;;;;;;3.38;0.90;;;0.00;98.20;;;;;;4999277;28;20034;-73
2022/01/21 04:31:16;;;;;;;1.13;0.50;;;0.00;98.00;;;;;;4998725;28;20499;-73
2022/01/21 04:33:42;;;;;;;1.80;0.60;;;0.00;97.90;;;;;;4997795;28;20700;-73
2022/01/21 04:36:08;;;;;;;2.75;0.55;;;0.00;97.70;;;;;;5002236;28;20042;-73
2022/01/21 04:38:35;;;;;;;0.82;0.50;;;0.00;97.70;;;;;;5002173;28;20029;-73
2022/01/21 04:41:20;;;;;;;1.70;0.68;;;-0.10;97.80;;;;;;5003770;28;20119;-73
2022/01/21 04:49:14;;;;;;;1.85;0.70;;;-0.20;97.50;;;;;;5005614;28;20104;-73
2022/01/21 04:51:48;;;;;;;1.92;0.90;;;-0.20;97.20;;;;;;5002620;28;21443;-72
2022/01/21 04:54:14;;;;;;;6.10;0.90;;;-0.30;97.30;;;;;;5003864;28;20495;-73
2022/01/21 04:56:40;;;;;;;3.63;0.70;;;-0.30;97.20;;;;;;5002763;28;20126;-73
2022/01/21 04:59:06;;;;;;;0.75;0.55;;;-0.30;97.20;;;;;;5004465;28;20377;-74
2022/01/21 05:01:31;;;;;;;1.95;1.00;;;-0.40;96.90;;;;;;5001071;28;20076;-72
2022/01/21 05:03:57;;;;;;;1.88;0.73;;;-0.40;97.00;;;;;;5002470;28;20084;-72
2022/01/21 05:06:23;;;;;;;1.15;0.93;;;-0.40;96.90;;;;;;5001884;28;20026;-72
2022/01/21 05:08:54;;;;;;;0.93;0.60;;;-0.30;96.90;;;;;;5002606;28;20026;-71
2022/01/21 05:11:20;;;;;;;2.47;0.88;;;-0.30;96.70;;;;;;5004330;28;20575;-71
2022/01/21 05:13:58;;;;;;;2.10;0.80;;;-0.30;96.70;;;;;;5005208;28;20044;-70
2022/01/21 05:18:56;;;;;;;1.45;0.80;;;-0.40;96.70;;;;;;5002822;28;20514;-72
2022/01/21 05:21:25;;;;;;;3.00;0.70;;;-0.40;96.40;;;;;;5002137;28;20037;-71
2022/01/21 05:23:53;;;;;;;1.70;0.70;;;-0.40;96.50;;;;;;5001855;28;20037;-72
2022/01/21 05:26:19;;;;;;;0.90;0.70;;;-0.40;96.30;;;;;;5002737;28;20828;-72
2022/01/21 05:28:45;;;;;;;1.27;0.82;;;-0.40;96.40;;;;;;4998839;28;20536;-71
2022/01/21 05:31:10;;;;;;;1.40;0.82;;;-0.40;96.00;;;;;;4998057;28;20183;-70
2022/01/21 05:33:36;;;;;;;1.73;0.80;;;-0.40;95.90;;;;;;4999444;28;20499;-71
2022/01/21 05:36:02;;;;;;;2.20;0.82;;;-0.40;95.80;;;;;;5002625;28;20034;-72
2022/01/21 05:38:27;;;;;;;2.22;0.90;;;-0.40;95.70;;;;;;5000128;28;20030;-71
2022/01/21 05:40:53;;;;;;;2.83;1.02;;;-0.40;95.50;;;;;;5002583;28;20046;-70
2022/01/21 05:43:19;;;;;;;1.10;0.85;;;-0.40;95.60;;;;;;5000282;28;20080;-71
2022/01/21 05:48:29;;;;;;;2.95;1.02;;;-0.40;95.60;;;;;;5001581;28;20108;-69
2022/01/21 05:50:54;;;;;;;1.77;0.90;;;-0.50;95.60;;;;;;5003709;28;20496;-70
2022/01/21 05:53:22;;;;;;;3.55;1.20;;;-0.50;95.20;;;;;;5002014;28;20104;-70
2022/01/21 05:55:48;;;;;;;2.05;0.85;;;-0.40;95.50;;;;;;5003645;28;20021;-70
2022/01/21 05:58:14;;;;;;;1.75;0.80;;;-0.50;95.20;;;;;;5003105;28;20112;-70
2022/01/21 06:00:43;;;;;;;2.25;0.73;;;-0.50;95.00;;;;;;5001861;28;20034;-70
2022/01/21 06:03:09;;;;;;;2.60;0.65;;;-0.50;95.00;;;;;;4999245;28;20026;-70
2022/01/21 06:05:35;;;;;;;2.33;0.82;;;-0.50;94.90;;;;;;5002512;28;20389;-70
2022/01/21 06:08:02;;;;;;;1.15;0.60;;;-0.50;94.80;;;;;;5002911;28;20038;-70
2022/01/21 06:10:28;;;;;;;7.20;2.53;;;-0.50;94.40;;;;;;4998498;28;20271;-70
2022/01/21 06:12:54;;;;;;;2.22;1.27;;;-0.60;94.30;;;;;;5001224;28;20041;-70
2022/01/21 06:15:20;;;;;;;3.03;0.80;;;-0.60;94.30;;;;;;5002156;28;20034;-73
2022/01/21 06:17:45;;;;;;;1.48;0.90;;;-0.70;94.20;;;;;;5000781;28;20125;-71
2022/01/21 06:20:11;;;;;;;1.58;0.90;;;-0.70;94.10;;;;;;5001560;28;20526;-71
2022/01/21 06:22:37;;;;;;;2.70;1.00;;;-0.70;93.90;;;;;;5002814;28;20048;-71
2022/01/21 06:25:03;;;;;;;3.30;0.90;;;-0.80;93.90;;;;;;5001068;28;20069;-70
2022/01/21 06:27:31;;;;;;;3.22;1.58;;;-0.80;94.20;;;;;;5001338;28;20037;-71
2022/01/21 06:29:57;;;;;;;6.60;3.30;;;-0.80;94.10;;;;;;4999300;28;20042;-70
2022/01/21 06:32:25;;;;;;;4.38;1.30;;;-0.70;94.00;;;;;;5001699;28;20080;-70
2022/01/21 06:34:51;;;;;;;4.60;2.38;;;-0.80;93.60;;;;;;5001635;28;20030;-71
2022/01/21 06:37:16;;;;;;;5.32;3.28;;;-0.70;93.70;;;;;;4999817;28;20429;-71
2022/01/21 06:39:42;;;;;;;3.60;1.13;;;-0.70;93.50;;;;;;4999370;28;20038;-70
2022/01/21 06:42:08;;;;;;;3.33;1.63;;;-0.80;93.40;;;;;;5003147;28;20515;-67
2022/01/21 06:44:34;;;;;;;2.60;1.55;;;-0.80;93.40;;;;;;5001687;28;20062;-66
2022/01/21 06:47:00;;;;;;;1.85;1.23;;;-0.70;93.30;;;;;;5001867;28;20386;-66
2022/01/21 06:49:25;;;;;;;5.90;1.35;;;-0.80;93.20;;;;;;5003157;28;20026;-67
2022/01/21 06:51:51;;;;;;;3.67;0.90;;;-0.80;93.30;;;;;;5002660;28;20112;-72
2022/01/21 06:54:17;;;;;;;2.97;0.73;;;-0.80;93.20;;;;;;4999640;28;20030;-72
2022/01/21 06:56:42;;;;;;;1.40;0.80;;;-0.80;93.20;;;;;;5001586;28;20392;-73
2022/01/21 06:59:08;;;;;;;2.85;0.80;;;-0.80;93.20;;;;;;5001084;28;20037;-73
2022/01/21 07:01:34;;;;;;;2.47;0.70;;;-0.80;93.00;;;;;;5001892;28;20041;-73
2022/01/21 07:03:59;;;;;;;5.00;1.02;;;-0.80;92.60;;;;;;5001748;28;20034;-73
2022/01/21 07:06:25;;;;;;;1.77;0.60;;;-0.90;92.30;;;;;;4998459;28;20034;-71
2022/01/21 07:08:51;;;;;;;3.13;0.75;;;-0.90;91.80;;;;;;5001577;28;20034;-73
2022/01/21 07:11:17;;;;;;;2.63;0.80;;;-0.90;92.40;;;;;;4999576;28;20038;-73
2022/01/21 07:13:43;;;;;;;4.72;1.00;;;-0.90;92.10;;;;;;5002594;28;20041;-72
2022/01/21 07:16:09;;;;;;;2.33;1.00;;;-0.80;92.10;;;;;;5002202;28;20030;-72
2022/01/21 07:18:34;;;;;;;2.75;1.00;;;-0.70;92.00;;;;;;4999687;28;20461;-72
2022/01/21 07:21:01;;;;;;;1.77;0.65;;;-0.70;91.90;;;;;;5000128;28;20042;-72
2022/01/21 07:23:26;;;;;;;2.95;0.73;;;-0.70;91.80;;;;;;5001713;28;20079;-73
2022/01/21 07:25:52;;;;;;;3.13;0.90;;;-0.60;91.80;;;;;;5001400;28;20107;-72
2022/01/21 07:28:17;;;;;;;3.45;1.23;;;-0.50;91.90;;;;;;5002598;28;20048;-71
2022/01/21 07:30:43;;;;;;;1.25;0.68;;;-0.50;91.70;;;;;;4997725;28;20038;-71
2022/01/21 07:33:09;;;;;;;3.75;0.73;;;-0.50;91.90;;;;;;5000717;28;20084;-72
2022/01/21 07:35:35;;;;;;;3.53;0.90;;;-0.50;92.10;;;;;;4999780;28;20056;-73
2022/01/21 07:38:01;;;;;;;2.20;0.80;;;-0.50;91.70;;;;;;5001886;28;20041;-72
2022/01/21 07:40:27;;;;;;;2.03;0.90;;;-0.50;91.80;;;;;;5000016;28;20037;-71
2022/01/21 07:42:53;;;;;;;1.67;0.90;;;-0.40;91.70;;;;;;5000964;28;20041;-71
2022/01/21 07:45:18;;;;;;;4.18;1.30;;;-0.50;91.70;;;;;;4996871;28;20034;-71
2022/01/21 07:47:44;;;;;;;4.40;1.00;;;-0.40;92.00;;;;;;4999628;28;20030;-71
2022/01/21 07:50:10;;;;;;;3.95;1.05;;;-0.40;91.80;;;;;;5001144;28;20084;-72
2022/01/21 07:52:35;;;;;;;2.53;0.82;;;-0.30;91.30;;;;;;4998608;28;20050;-72
2022/01/21 07:55:01;;;;;;;2.47;0.60;;;-0.20;91.20;;;;;;5003479;28;20471;-73
2022/01/21 07:57:26;;;;;;;2.10;0.73;;;0.00;90.80;;;;;;4998895;28;20561;-72
2022/01/21 07:59:52;;;;;;;1.75;0.68;;;0.00;90.90;;;;;;5001160;28;20046;-73
2022/01/21 08:02:18;;;;;;;3.22;0.90;;;-0.10;90.90;;;;;;4998686;28;20037;-73
2022/01/21 08:04:44;;;;;;;1.52;0.70;;;-0.10;91.00;;;;;;5000013;28;20515;-72
2022/01/21 08:07:11;;;;;;;1.88;0.85;;;-0.10;90.80;;;;;;4998470;28;20030;-72
2022/01/21 08:09:37;;;;;;;1.23;0.60;;;-0.10;90.90;;;;;;4999070;28;20109;-72
2022/01/21 08:12:04;;;;;;;2.28;0.90;;;0.00;90.50;;;;;;5001764;28;20111;-72
2022/01/21 08:14:29;;;;;;;2.08;1.00;;;-0.10;90.80;;;;;;5001794;28;20041;-72
2022/01/21 08:16:55;;;;;;;3.00;1.10;;;-0.10;90.80;;;;;;5000864;28;20034;-72
2022/01/21 08:19:21;;;;;;;1.40;0.70;;;-0.10;90.60;;;;;;4998352;28;20030;-72
2022/01/21 08:21:47;;;;;;;2.65;0.77;;;-0.10;90.70;;;;;;5000375;28;20046;-72
2022/01/21 08:24:12;;;;;;;2.17;1.00;;;0.00;90.70;;;;;;4998249;28;20030;-72
2022/01/21 08:26:38;;;;;;;3.58;0.88;;;0.00;89.90;;;;;;5003545;28;20026;-72
2022/01/21 08:29:06;;;;;;;2.83;0.80;;;0.00;90.30;;;;;;4999275;28;20044;-72
2022/01/21 08:31:32;;;;;;;5.05;1.60;;;0.00;90.60;;;;;;4996540;28;20040;-71
2022/01/21 08:33:58;;;;;;;2.15;1.02;;;0.00;91.30;;;;;;4997597;28;20512;-70
2022/01/21 08:36:25;;;;;;;4.97;0.75;;;0.10;91.30;;;;;;4996401;28;20034;-71
2022/01/21 08:38:51;;;;;;;3.35;1.10;;;0.00;91.10;;;;;;4996479;28;20073;-72
2022/01/21 08:41:18;;;;;;;1.38;0.75;;;0.00;91.20;;;;;;4991929;28;20042;-72
2022/01/21 08:43:43;;;;;;;1.30;0.80;;;0.00;91.20;;;;;;4998383;28;20033;-72
2022/01/21 08:46:09;;;;;;;1.83;0.70;;;0.00;91.20;;;;;;5000772;28;20088;-72
2022/01/21 08:48:35;;;;;;;3.20;1.05;;;-0.10;91.40;;;;;;4999497;28;20101;-71
2022/01/21 08:51:08;;;;;;;4.95;0.80;;;-0.10;91.60;;;;;;4996025;28;20041;-71
2022/01/21 08:53:38;;;;;;;1.98;0.80;;;-0.10;91.70;;;;;;4998012;28;20118;-72
2022/01/21 08:56:07;;;;;;;2.92;0.70;;;-0.10;91.70;;;;;;4995809;28;20037;-72
2022/01/21 08:58:33;;;;;;;6.43;2.70;;;0.00;91.70;;;;;;4999024;28;20033;-72
2022/01/21 09:00:59;;;;;;;4.68;1.83;;;0.10;90.80;;;;;;4997037;28;20730;-70
2022/01/21 09:03:24;;;;;;;2.47;1.08;;;0.20;90.60;;;;;;4995012;28;20034;-71
2022/01/21 09:05:51;;;;;;;3.67;1.23;;;0.30;90.20;;;;;;4997268;28;20042;-70
2022/01/21 09:08:23;;;;;;;4.18;1.23;;;0.40;89.10;;;;;;4996726;28;20022;-70
2022/01/21 09:10:50;;;;;;;5.30;0.85;;;0.50;89.50;;;;;;4998547;28;20048;-72
2022/01/21 09:13:16;;;;;;;3.15;0.63;;;0.60;88.20;;;;;;4999570;28;20463;-71
2022/01/21 09:15:42;;;;;;;2.70;1.08;;;0.60;85.40;;;;;;4998687;28;20034;-72
2022/01/21 09:18:09;;;;;;;1.45;0.93;;;0.70;84.90;;;;;;4994989;28;20178;-72
2022/01/21 09:20:36;;;;;;;3.47;0.60;;;0.70;83.40;;;;;;5002875;28;20033;-70
2022/01/21 09:23:03;;;;;;;2.03;0.32;;;0.70;81.00;;;;;;5002997;28;20029;-70
2022/01/21 09:25:29;;;;;;;1.90;0.38;;;0.80;80.70;;;;;;5002984;28;20117;-70
2022/01/21 09:27:55;;;;;;;1.25;0.75;;;0.90;79.20;;;;;;5004292;28;20046;-71
2022/01/21 09:30:21;;;;;;;3.75;0.65;;;0.90;78.30;;;;;;5006285;28;20104;-71
2022/01/21 09:32:47;;;;;;;2.40;0.80;;;0.90;78.30;;;;;;5004301;28;20026;-71
2022/01/21 09:35:13;;;;;;;1.73;0.93;;;0.90;79.80;;;;;;5001955;28;20026;-70
2022/01/21 09:37:39;;;;;;;2.60;0.70;;;0.80;82.40;;;;;;5005136;28;20504;-71
2022/01/21 09:40:06;;;;;;;5.25;1.20;;;0.80;80.40;;;;;;5001086;28;20060;-70
2022/01/21 09:42:34;;;;;;;2.97;0.70;;;0.70;81.60;;;;;;4998747;28;20034;-68
2022/01/21 09:45:00;;;;;;;4.10;0.68;;;0.70;81.40;;;;;;5001720;28;20113;-70
2022/01/21 09:47:31;;;;;;;1.17;0.60;;;0.70;81.60;;;;;;5003245;28;20405;-71
2022/01/21 09:49:57;;;;;;;3.00;0.60;;;0.70;80.50;;;;;;5002028;28;20108;-70
2022/01/21 09:52:24;;;;;;;2.65;0.63;;;0.70;82.10;;;;;;4999361;28;20492;-70
2022/01/21 09:54:53;;;;;;;2.20;0.95;;;0.60;82.50;;;;;;5002988;28;20105;-70
2022/01/21 09:57:21;;;;;;;3.58;0.88;;;0.60;82.20;;;;;;5002223;28;20037;-70
2022/01/21 09:59:49;;;;;;;4.57;1.17;;;0.60;84.10;;;;;;5006359;28;20026;-72
2022/01/21 10:02:18;;;;;;;3.65;0.70;;;0.40;83.80;;;;;;5004235;28;20595;-71
2022/01/21 10:04:49;;;;;;;2.17;0.80;;;0.30;84.30;;;;;;4999471;28;20034;-70
2022/01/21 10:07:17;;;;;;;3.70;0.93;;;0.30;85.90;;;;;;5001279;28;20050;-70
2022/01/21 10:09:44;;;;;;;5.00;1.08;;;0.30;86.90;;;;;;5004746;28;20029;-71
2022/01/21 10:12:10;;;;;;;1.45;0.98;;;0.30;86.40;;;;;;5000648;28;20034;-69
2022/01/21 10:14:38;;;;;;;21.05;12.23;;;0.20;87.00;;;;;;5003628;28;20536;-72
2022/01/21 10:17:05;;;;;;;2.55;1.05;;;0.20;87.60;;;;;;4998716;28;20026;-71
2022/01/21 10:19:33;;;;;;;6.68;1.92;;;0.30;89.00;;;;;;4997577;28;20117;-73
2022/01/21 10:22:16;;;;;;;3.22;0.85;;;0.40;88.40;;;;;;5001797;28;20084;-72
2022/01/21 10:25:02;;;;;;;2.55;0.70;;;0.40;89.00;;;;;;4999219;28;20033;-70
2022/01/21 10:27:38;;;;;;;4.35;1.17;;;0.20;89.60;;;;;;5000982;28;20362;-71
2022/01/21 10:30:22;;;;;;;2.65;1.05;;;0.20;90.40;;;;;;5004177;28;20553;-71
2022/01/21 10:32:48;;;;;;;7.35;2.78;;;0.30;90.30;;;;;;5001218;28;20029;-72
2022/01/21 10:35:32;;;;;;;2.75;1.38;;;0.30;90.20;;;;;;5004900;28;20448;-72
2022/01/21 10:38:22;;;;;;;2.85;0.73;;;0.30;90.00;;;;;;4998563;28;20572;-73
2022/01/21 10:40:47;;;;;;;5.03;1.42;;;0.20;90.50;;;;;;4999294;28;20589;-72
2022/01/21 10:43:15;;;;;;;3.25;0.90;;;0.20;90.90;;;;;;5002021;28;20037;-72
2022/01/21 10:46:08;;;;;;;3.80;1.15;;;0.20;90.60;;;;;;5002145;28;20524;-72
2022/01/21 10:48:55;;;;;;;4.03;0.95;;;0.30;90.70;;;;;;4995716;28;20132;-72
2022/01/21 10:51:25;;;;;;;1.25;0.80;;;0.40;90.40;;;;;;5000205;28;20113;-70
2022/01/21 10:53:52;;;;;;;2.08;1.05;;;0.30;90.70;;;;;;4999422;28;20053;-71
2022/01/21 10:56:19;;;;;;;4.95;2.33;;;0.30;91.30;;;;;;5003096;28;20097;-71
2022/01/21 10:58:56;;;;;;;5.03;1.90;;;0.40;91.40;;;;;;5000511;28;20113;-71
2022/01/21 11:01:29;;;;;;;4.85;1.30;;;0.60;91.10;;;;;;5003557;28;20084;-71
2022/01/21 11:04:09;;;;;;;8.98;4.70;;;0.60;90.70;;;;;;5000543;28;20488;-71
2022/01/21 11:06:48;;;;;;;2.85;0.82;;;0.70;90.80;;;;;;5002974;28;20075;-71
2022/01/21 11:09:22;;;;;;;1.90;0.95;;;0.70;90.50;;;;;;5000522;28;20026;-72
2022/01/21 11:12:09;;;;;;;5.13;2.15;;;0.60;90.80;;;;;;5000533;28;20073;-71
2022/01/21 11:14:37;;;;;;;4.05;1.05;;;0.60;90.80;;;;;;4999668;28;20014;-72
2022/01/21 11:17:14;;;;;;;5.38;1.50;;;0.70;90.50;;;;;;5002551;28;20029;-72
2022/01/21 11:19:40;;;;;;;5.72;1.58;;;0.60;90.90;;;;;;5001010;28;20032;-72
2022/01/21 11:22:07;;;;;;;2.60;1.10;;;0.60;91.10;;;;;;5004462;28;20113;-71
2022/01/21 11:24:33;;;;;;;1.95;1.15;;;0.70;91.30;;;;;;4998757;28;20034;-72
2022/01/21 11:27:09;;;;;;;3.95;1.25;;;0.70;91.40;;;;;;4998319;28;20532;-72
2022/01/21 11:29:36;;;;;;;4.88;1.52;;;0.70;92.20;;;;;;4999968;28;20033;-72
2022/01/21 11:32:03;;;;;;;3.75;1.20;;;0.80;91.90;;;;;;5000177;28;20022;-71
2022/01/21 11:34:29;;;;;;;3.88;1.50;;;0.90;90.80;;;;;;5002095;28;20113;-72
2022/01/21 11:36:56;;;;;;;7.55;1.10;;;0.90;90.70;;;;;;4998573;28;20030;-70
2022/01/21 11:39:24;;;;;;;5.63;1.02;;;0.90;90.80;;;;;;5000770;28;20113;-72
2022/01/21 11:41:54;;;;;;;5.32;1.65;;;0.90;90.30;;;;;;4997916;28;20045;-72
2022/01/21 11:44:22;;;;;;;3.55;1.10;;;0.90;90.90;;;;;;4999508;28;20092;-73
2022/01/21 11:49:42;;;;;;;3.53;1.20;;;0.80;91.10;;;;;;5000014;28;20033;-73
2022/01/21 11:52:18;;;;;;;2.45;1.23;;;0.70;91.80;;;;;;4996769;28;21969;-73
2022/01/21 11:54:45;;;;;;;5.05;1.35;;;0.70;91.70;;;;;;4998125;28;20022;-72
2022/01/21 11:57:12;;;;;;;8.73;1.70;;;0.80;90.80;;;;;;4997219;28;20018;-73
2022/01/21 11:59:47;;;;;;;3.75;1.10;;;0.90;90.50;;;;;;4997860;28;20023;-73
2022/01/21 12:02:15;;;;;;;3.53;1.00;;;1.00;90.20;;;;;;4996829;28;20049;-73
2022/01/21 12:04:56;;;;;;;5.95;1.50;;;1.00;90.60;;;;;;5011284;28;20366;-73
2022/01/21 12:07:37;;;;;;;4.90;1.40;;;1.00;90.80;;;;;;4992742;28;20123;-73
2022/01/21 12:10:08;;;;;;;2.50;1.27;;;1.10;90.60;;;;;;4995868;28;20030;-73
2022/01/21 12:12:48;;;;;;;3.83;1.50;;;1.10;90.50;;;;;;4992551;28;20030;-73
2022/01/21 12:15:22;;;;;;;3.47;1.50;;;1.20;90.20;;;;;;4993775;28;20022;-74
2022/01/21 12:17:54;;;;;;;2.30;1.10;;;1.20;90.80;;;;;;5010570;28;20030;-74
2022/01/21 12:20:31;;;;;;;4.00;1.45;;;1.20;89.60;;;;;;4994839;28;20038;-73
2022/01/21 12:23:18;;;;;;;2.80;0.82;;;1.20;90.70;;;;;;4992337;28;20045;-73
2022/01/21 12:26:08;;;;;;;5.95;1.27;;;1.20;90.90;;;;;;4997388;28;20092;-74
2022/01/21 12:28:38;;;;;;;5.03;2.15;;;1.20;90.50;;;;;;4995601;28;20022;-74
2022/01/21 12:31:05;;;;;;;4.53;1.38;;;1.10;90.80;;;;;;4999041;28;20053;-74
2022/01/21 12:34:00;;;;;;;10.93;1.70;;;1.10;90.50;;;;;;4996067;28;20552;-74
2022/01/21 12:36:29;;;;;;;4.80;1.35;;;1.10;90.50;;;;;;4996439;28;20084;-72
2022/01/21 12:41:24;;;;;;;4.53;1.20;;;1.00;90.80;;;;;;5000031;28;20049;-71
2022/01/21 12:43:53;;;;;;;2.25;0.95;;;1.00;90.50;;;;;;4995548;28;20030;-72
2022/01/21 12:46:30;;;;;;;3.85;1.73;;;1.10;90.60;;;;;;4994165;28;20034;-72
2022/01/21 12:48:57;;;;;;;7.35;1.73;;;1.10;91.00;;;;;;4995971;28;20030;-71
2022/01/21 12:56:48;;;;;;;3.20;1.42;;;1.10;90.90;;;;;;5001594;28;21673;-71
2022/01/21 12:59:18;;;;;;;3.65;1.75;;;1.10;90.20;;;;;;4999134;28;20566;-70
2022/01/21 13:01:45;;;;;;;7.00;1.80;;;1.20;90.90;;;;;;4997673;28;22239;-71
2022/01/21 13:04:31;;;;;;;3.50;1.27;;;1.20;91.00;;;;;;5000064;28;20069;-71
2022/01/21 13:07:06;;;;;;;2.03;1.13;;;1.10;90.10;;;;;;4998525;28;20025;-70
2022/01/21 13:09:54;;;;;;;4.15;1.10;;;1.10;90.90;;;;;;4997751;28;20030;-71
2022/01/21 13:12:23;;;;;;;4.70;1.85;;;1.20;91.20;;;;;;4996633;28;20030;-70
2022/01/21 13:14:54;;;;;;;4.72;1.73;;;1.20;90.60;;;;;;5000197;28;20022;-70
2022/01/21 13:17:19;;;;;;;4.78;1.45;;;1.10;90.20;;;;;;5002904;28;20122;-68
2022/01/21 13:19:48;;;;;;;5.07;1.02;;;1.10;90.00;;;;;;5003368;28;20109;-70
2022/01/21 13:22:16;;;;;;;4.93;1.08;;;1.20;89.40;;;;;;5002929;28;20388;-70
2022/01/21 13:25:05;;;;;;;3.63;0.93;;;1.00;88.80;;;;;;4996275;28;20061;-69
2022/01/21 13:27:32;;;;;;;3.45;1.02;;;1.10;89.30;;;;;;4996420;28;20037;-69
2022/01/21 13:30:00;;;;;;;4.18;1.42;;;1.10;89.10;;;;;;4998315;28;20124;-70
2022/01/21 13:32:26;;;;;;;4.53;1.08;;;1.00;90.00;;;;;;4998213;28;20029;-70
2022/01/21 13:35:04;;;;;;;7.85;1.10;;;1.00;90.20;;;;;;4995987;28;22368;-70
2022/01/21 13:37:30;;;;;;;3.08;1.33;;;1.10;89.90;;;;;;4995831;28;20030;-69
2022/01/21 13:39:55;;;;;;;3.67;1.30;;;1.10;90.50;;;;;;4996598;28;20034;-69
2022/01/21 13:42:24;;;;;;;3.60;1.33;;;1.10;90.70;;;;;;4991726;28;20524;-69
2022/01/21 13:44:55;;;;;;;7.45;1.50;;;1.20;90.90;;;;;;4997865;28;20056;-69
2022/01/21 13:47:39;;;;;;;7.30;2.15;;;1.20;90.80;;;;;;4994131;28;20916;-69
2022/01/21 13:50:26;;;;;;;4.85;1.33;;;1.20;90.30;;;;;;4994030;28;20030;-69
2022/01/21 13:53:04;;;;;;;7.55;1.48;;;1.20;90.60;;;;;;4996161;28;20065;-69
2022/01/21 13:55:51;;;;;;;7.20;1.35;;;1.20;90.10;;;;;;4999574;28;20049;-70
2022/01/21 13:58:22;;;;;;;5.00;1.20;;;1.10;89.70;;;;;;4995418;28;20041;-70